Time;durP1;ratioP1;P1;durP2;ratioP2;P2;SDS_P1;SDS_P2;PMS_P1;PMS_P2;Temp;Humidity;BMP_temperature;BMP_pressure;BME280_temperature;BME280_humidity;BME280_pressure;Samples;Min_cycle;Max_cycle;Signal;HPM_P1;HPM_P2
2023/02/18 00:02:12;;;;;;;38.20;14.30;;;;;;;10.30;100.00;102109.25;2615836;36;20038;-55
2023/02/18 00:04:41;;;;;;;40.77;13.63;;;;;;;10.35;100.00;102096.38;2615441;36;20562;-56
2023/02/18 00:07:09;;;;;;;27.17;13.67;;;;;;;10.28;100.00;102105.81;2615774;36;20038;-53
2023/02/18 00:09:39;;;;;;;35.95;15.75;;;;;;;10.24;100.00;102109.66;2616720;36;20035;-55
2023/02/18 00:12:08;;;;;;;31.27;15.57;;;;;;;10.34;100.00;102100.03;2616015;36;20038;-54
2023/02/18 00:14:36;;;;;;;36.80;15.23;;;;;;;10.30;100.00;102109.25;2616928;31;20516;-56
2023/02/18 00:17:07;;;;;;;37.75;15.90;;;;;;;10.47;100.00;102105.44;2616049;36;20530;-57
2023/02/18 00:19:35;;;;;;;37.65;16.90;;;;;;;10.37;100.00;102094.44;2615542;36;20034;-51
2023/02/18 00:22:04;;;;;;;44.88;18.10;;;;;;;10.41;100.00;102101.34;2616080;36;20043;-55
2023/02/18 00:24:32;;;;;;;45.72;17.40;;;;;;;10.45;100.00;102099.28;2616057;36;20034;-55
2023/02/18 00:27:00;;;;;;;43.17;17.55;;;;;;;10.39;100.00;102103.25;2616535;36;20404;-54
2023/02/18 00:29:29;;;;;;;40.50;17.75;;;;;;;10.40;100.00;102098.75;2616060;36;20412;-55
2023/02/18 00:31:57;;;;;;;47.13;17.58;;;;;;;10.41;100.00;102090.59;2616426;36;20026;-57
2023/02/18 00:34:28;;;;;;;38.10;17.37;;;;;;;10.43;100.00;102094.00;2615905;31;20057;-53
2023/02/18 00:36:57;;;;;;;51.78;18.98;;;;;;;10.54;100.00;102095.13;2615251;36;20034;-56
2023/02/18 00:39:26;;;;;;;43.60;19.00;;;;;;;10.49;100.00;102090.91;2615006;36;20547;-55
2023/02/18 00:41:54;;;;;;;52.60;18.10;;;;;;;10.51;100.00;102088.97;2616390;36;20034;-55
2023/02/18 00:44:22;;;;;;;46.73;18.17;;;;;;;10.55;100.00;102075.31;2615663;31;20030;-53
2023/02/18 00:46:52;;;;;;;41.35;18.30;;;;;;;10.54;100.00;102087.03;2616067;36;20551;-55
2023/02/18 00:49:20;;;;;;;;;;;;;;;10.56;100.00;102072.50;2614747;31;20046;-54
2023/02/18 00:51:51;;;;;;;44.78;20.17;;;;;;;10.50;100.00;102065.72;2616388;36;19950;-55
2023/02/18 00:54:19;;;;;;;40.90;17.38;;;;;;;10.52;100.00;102058.38;2615713;31;20030;-53
2023/02/18 00:56:47;;;;;;;40.88;17.80;;;;;;;10.68;100.00;102057.31;2616287;36;20129;-55
2023/02/18 00:59:16;;;;;;;45.28;18.77;;;;;;;10.57;100.00;102062.59;2615608;36;20030;-55
2023/02/18 01:01:44;;;;;;;41.37;17.77;;;;;;;10.59;100.00;102066.06;2616282;36;20038;-55
2023/02/18 01:04:13;;;;;;;46.50;20.13;;;;;;;10.63;100.00;102062.16;2615205;36;20039;-55
2023/02/18 01:06:41;;;;;;;46.63;19.45;;;;;;;10.56;100.00;102050.97;2616305;36;20061;-53
2023/02/18 01:09:12;;;;;;;51.05;18.27;;;;;;;10.56;100.00;102053.66;2615894;36;20065;-54
2023/02/18 01:11:40;;;;;;;49.90;19.08;;;;;;;10.64;100.00;102053.97;2616264;36;20030;-51
2023/02/18 01:14:09;;;;;;;53.50;20.02;;;;;;;10.72;100.00;102050.75;2615597;31;20061;-54
2023/02/18 01:16:37;;;;;;;47.15;18.45;;;;;;;10.60;100.00;102057.00;2615279;36;20042;-54
2023/02/18 01:19:05;;;;;;;44.17;20.20;;;;;;;10.59;100.00;102055.28;2615098;36;20033;-55
2023/02/18 01:21:34;;;;;;;52.22;19.35;;;;;;;10.67;100.00;102058.28;2616354;36;20038;-54
2023/02/18 01:24:02;;;;;;;53.28;19.52;;;;;;;10.66;100.00;102053.91;2616338;31;20033;-56
2023/02/18 01:26:33;;;;;;;49.10;18.42;;;;;;;10.63;100.00;102046.00;2615947;36;20038;-55
2023/02/18 01:29:01;;;;;;;50.47;20.33;;;;;;;10.62;100.00;102050.53;2615688;36;20159;-53
2023/02/18 01:31:30;;;;;;;52.90;21.90;;;;;;;10.62;100.00;102038.91;2615739;36;20035;-53
2023/02/18 01:33:58;;;;;;;51.80;21.70;;;;;;;10.55;100.00;102041.16;2615537;36;20035;-55
2023/02/18 01:36:26;;;;;;;57.92;24.05;;;;;;;10.51;100.00;102043.22;2615735;36;20559;-55
2023/02/18 01:38:55;;;;;;;53.60;22.73;;;;;;;10.77;100.00;102037.81;2616638;36;20068;-55
2023/02/18 01:41:23;;;;;;;64.57;25.80;;;;;;;10.72;100.00;102037.31;2615220;36;20038;-56
2023/02/18 01:44:16;;;;;;;76.63;26.88;;;;;;;10.68;100.00;102038.47;2616252;36;20558;-56
2023/02/18 01:46:45;;;;;;;71.38;25.63;;;;;;;10.67;100.00;102025.97;2615758;36;20030;-55
2023/02/18 01:49:18;;;;;;;72.20;26.70;;;;;;;10.55;100.00;102033.09;2616084;36;20035;-56
2023/02/18 01:51:50;;;;;;;65.22;24.83;;;;;;;10.64;100.00;102031.59;2611963;36;20303;-56
2023/02/18 01:54:24;;;;;;;74.00;27.33;;;;;;;10.61;100.00;102023.72;2600312;31;20042;-55
2023/02/18 01:56:59;;;;;;;77.32;28.50;;;;;;;10.52;100.00;102023.38;2602451;36;20039;-57
2023/02/18 01:59:36;;;;;;;72.97;26.10;;;;;;;10.50;100.00;102014.56;2607157;36;20033;-55
2023/02/18 02:02:05;;;;;;;76.70;27.95;;;;;;;10.39;100.00;102008.22;2602127;36;20041;-57
2023/02/18 02:04:33;;;;;;;72.80;24.83;;;;;;;10.41;100.00;102011.66;2600092;36;20428;-54
2023/02/18 02:07:03;;;;;;;81.27;29.03;;;;;;;10.44;100.00;102004.25;2600150;36;20459;-55
2023/02/18 02:09:35;;;;;;;73.32;26.40;;;;;;;10.40;100.00;101981.19;2599091;36;20065;-56
2023/02/18 02:12:24;;;;;;;76.55;27.23;;;;;;;10.51;100.00;101978.63;2611380;31;20539;-54
2023/02/18 02:15:06;;;;;;;;;;;;;;;10.51;100.00;101981.31;2603047;36;20041;-56
2023/02/18 02:17:42;;;;;;;74.53;24.92;;;;;;;10.46;100.00;101967.28;2598222;36;19946;-54
2023/02/18 02:20:52;;;;;;;76.13;24.73;;;;;;;10.39;100.00;101957.06;2599860;36;20425;-54
2023/02/18 02:24:05;;;;;;;80.30;26.30;;;;;;;10.32;100.00;101953.91;2603123;36;20042;-55
2023/02/18 02:27:02;;;;;;;86.88;25.35;;;;;;;10.28;100.00;101945.19;2606034;31;20038;-55
2023/02/18 02:29:57;;;;;;;77.80;23.80;;;;;;;10.21;100.00;101949.28;2600677;36;20039;-54
2023/02/18 02:32:53;;;;;;;70.78;22.77;;;;;;;10.28;100.00;101944.34;2601214;36;20061;-54
2023/02/18 02:35:26;;;;;;;78.10;22.40;;;;;;;10.29;100.00;101936.19;2603305;36;20049;-54
2023/02/18 02:38:00;;;;;;;82.13;23.55;;;;;;;10.22;100.00;101939.38;2600485;36;20652;-54
2023/02/18 02:40:37;;;;;;;83.18;25.50;;;;;;;10.08;100.00;101926.91;2608198;31;20037;-55
2023/02/18 02:43:12;;;;;;;78.65;23.60;;;;;;;10.25;100.00;101921.22;2607754;31;20034;-54
2023/02/18 02:45:55;;;;;;;83.93;23.95;;;;;;;10.07;100.00;101898.28;2604612;36;20034;-58
2023/02/18 02:48:31;;;;;;;70.20;23.27;;;;;;;10.14;100.00;101891.50;2600332;31;20870;-55
2023/02/18 02:51:09;;;;;;;84.50;23.52;;;;;;;10.13;100.00;101887.09;2605895;36;20038;-56
2023/02/18 02:53:41;;;;;;;82.07;23.48;;;;;;;10.19;100.00;101881.28;2604715;36;20637;-56
2023/02/18 02:56:15;;;;;;;85.05;24.05;;;;;;;10.00;100.00;101887.94;2600436;36;20896;-54
2023/02/18 02:58:44;;;;;;;94.30;24.17;;;;;;;10.05;100.00;101882.25;2601583;36;20554;-52
2023/02/18 03:01:38;;;;;;;90.75;26.65;;;;;;;10.05;100.00;101886.78;2604137;36;20038;-53
2023/02/18 03:04:24;;;;;;;89.63;23.92;;;;;;;10.08;100.00;101883.88;2602499;36;20069;-57
2023/02/18 03:07:21;;;;;;;91.32;24.50;;;;;;;10.16;100.00;101876.13;2601353;36;20591;-54
2023/02/18 03:10:18;;;;;;;83.40;22.92;;;;;;;10.06;100.00;101873.22;2603939;36;20468;-56
2023/02/18 03:12:56;;;;;;;104.55;26.13;;;;;;;10.09;100.00;101867.63;2601857;36;20038;-55
2023/02/18 03:15:34;;;;;;;106.25;26.50;;;;;;;10.14;100.00;101865.47;2599350;36;20045;-54
2023/02/18 03:18:06;;;;;;;102.05;25.13;;;;;;;10.09;100.00;101870.31;2599806;36;20070;-55
2023/02/18 03:20:41;;;;;;;99.72;25.48;;;;;;;9.95;100.00;101862.34;2598804;36;20043;-56
2023/02/18 03:23:19;;;;;;;99.60;25.85;;;;;;;9.90;100.00;101853.75;2601242;36;20528;-57
2023/02/18 03:25:47;;;;;;;105.75;26.42;;;;;;;9.93;100.00;101832.88;2602390;36;20094;-54
2023/02/18 03:28:20;;;;;;;107.72;27.05;;;;;;;9.96;100.00;101823.72;2600150;36;20042;-54
2023/02/18 03:30:52;;;;;;;99.50;23.95;;;;;;;9.98;100.00;101822.66;2604702;36;20026;-54
2023/02/18 03:33:26;;;;;;;84.65;24.67;;;;;;;10.15;100.00;101823.28;2601359;36;20039;-54
2023/02/18 03:35:57;;;;;;;104.72;26.02;;;;;;;10.18;100.00;101818.53;2602320;31;20041;-56
2023/02/18 03:38:33;;;;;;;115.65;26.50;;;;;;;10.11;100.00;101811.00;2600041;31;20566;-55
2023/02/18 03:41:01;;;;;;;105.93;26.92;;;;;;;10.06;100.00;101800.59;2598727;36;20663;-54
2023/02/18 03:43:30;;;;;;;118.40;28.38;;;;;;;10.25;100.00;101797.44;2601582;36;20103;-54
2023/02/18 03:45:59;;;;;;;111.18;26.70;;;;;;;10.15;100.00;101789.16;2600840;36;20038;-54
2023/02/18 03:48:30;;;;;;;111.35;25.77;;;;;;;10.17;100.00;101787.25;2602331;36;20931;-55
2023/02/18 03:50:59;;;;;;;106.10;25.40;;;;;;;10.13;100.00;101785.72;2603025;36;20049;-54
2023/02/18 03:53:32;;;;;;;101.05;26.42;;;;;;;10.18;100.00;101778.19;2604432;36;20042;-56
2023/02/18 03:56:01;;;;;;;112.25;25.23;;;;;;;10.05;100.00;101771.97;2600798;36;20041;-55
2023/02/18 03:58:29;;;;;;;102.03;24.73;;;;;;;10.23;100.00;101766.22;2600998;36;20038;-56
2023/02/18 04:00:57;;;;;;;94.57;25.93;;;;;;;10.24;100.00;101762.56;2598287;36;20039;-53
2023/02/18 04:03:26;;;;;;;87.95;24.02;;;;;;;10.29;100.00;101763.97;2599009;36;20030;-55
2023/02/18 04:05:54;;;;;;;78.33;21.83;;;;;;;10.42;100.00;101763.94;2615013;36;20038;-56
2023/02/18 04:08:22;;;;;;;82.10;23.00;;;;;;;10.43;100.00;101744.13;2601431;36;20058;-55
2023/02/18 04:10:54;;;;;;;67.40;20.77;;;;;;;10.38;100.00;101754.38;2599136;36;20043;-53
2023/02/18 04:13:22;;;;;;;75.97;21.80;;;;;;;10.52;100.00;101746.13;2604925;36;20110;-56
2023/02/18 04:15:51;;;;;;;79.93;23.63;;;;;;;10.61;100.00;101747.28;2602794;36;20042;-52
2023/02/18 04:18:20;;;;;;;81.32;22.88;;;;;;;10.55;100.00;101752.28;2597347;36;20045;-55
2023/02/18 04:20:51;;;;;;;;;;;;;;;10.59;100.00;101743.84;2602752;36;20058;-54
2023/02/18 04:23:19;;;;;;;75.43;23.27;;;;;;;10.59;100.00;101726.84;2603882;36;20463;-51
2023/02/18 04:25:48;;;;;;;73.47;19.67;;;;;;;10.57;100.00;101732.34;2602034;36;20042;-56
2023/02/18 04:28:22;;;;;;;76.53;22.47;;;;;;;10.56;100.00;101729.78;2606923;36;20439;-56
2023/02/18 04:30:50;;;;;;;67.68;19.65;;;;;;;10.45;100.00;101720.69;2606068;36;20043;-51
2023/02/18 04:33:18;;;;;;;60.78;16.75;;;;;;;10.56;100.00;101730.63;2602386;36;20034;-53
2023/02/18 04:35:47;;;;;;;55.00;15.90;;;;;;;10.54;100.00;101723.63;2600915;36;20042;-55
2023/02/18 04:38:16;;;;;;;51.58;15.52;;;;;;;10.58;100.00;101722.44;2604873;36;20956;-56
2023/02/18 04:40:44;;;;;;;45.33;15.40;;;;;;;10.45;100.00;101715.28;2601886;36;20570;-57
2023/02/18 04:43:12;;;;;;;44.65;13.07;;;;;;;10.49;100.00;101705.13;2604145;36;20046;-55
2023/02/18 04:48:26;;;;;;;37.67;11.20;;;;;;;10.51;100.00;101684.34;2625965;35;20109;-56
2023/02/18 04:50:55;;;;;;;29.88;10.93;;;;;;;10.52;100.00;101684.22;2603984;31;20559;-55
2023/02/18 04:53:23;;;;;;;28.08;9.75;;;;;;;10.54;100.00;101675.19;2604439;36;20041;-56
2023/02/18 04:55:53;;;;;;;30.98;10.18;;;;;;;10.51;100.00;101682.53;2602933;36;20030;-54
2023/02/18 04:58:23;;;;;;;23.67;9.15;;;;;;;10.52;100.00;101676.16;2606876;36;20042;-53
2023/02/18 05:00:52;;;;;;;23.77;9.73;;;;;;;10.63;100.00;101683.44;2605034;36;20133;-56
2023/02/18 05:03:21;;;;;;;24.60;8.95;;;;;;;10.68;100.00;101677.69;2602570;36;20038;-53
2023/02/18 05:05:51;;;;;;;27.05;9.70;;;;;;;10.61;100.00;101663.81;2604775;36;20057;-51
2023/02/18 05:08:20;;;;;;;23.67;9.63;;;;;;;10.52;100.00;101665.38;2604608;31;20559;-56
2023/02/18 05:10:51;;;;;;;22.92;9.70;;;;;;;10.63;100.00;101669.09;2602267;36;20038;-57
2023/02/18 05:13:19;;;;;;;20.75;9.07;;;;;;;10.67;100.00;101668.78;2603842;36;20038;-52
2023/02/18 05:15:47;;;;;;;23.92;10.52;;;;;;;10.66;100.00;101655.44;2605603;36;20069;-55
2023/02/18 05:18:16;;;;;;;18.42;9.38;;;;;;;10.74;100.00;101663.75;2604070;36;20045;-53
2023/02/18 05:20:45;;;;;;;22.35;9.18;;;;;;;10.69;100.00;101652.50;2603375;36;20558;-55
2023/02/18 05:23:19;;;;;;;;;;;;;;;10.61;100.00;101654.91;2604786;36;20045;-55
2023/02/18 05:25:47;;;;;;;24.08;10.88;;;;;;;10.67;100.00;101630.19;2604312;31;19977;-56
2023/02/18 05:28:15;;;;;;;20.40;10.17;;;;;;;10.65;100.00;101634.84;2604757;31;20555;-54
2023/02/18 05:30:44;;;;;;;19.77;10.70;;;;;;;10.75;100.00;101641.25;2600940;36;20177;-55
2023/02/18 05:33:12;;;;;;;21.83;11.80;;;;;;;10.70;100.00;101638.03;2603795;36;20620;-53
2023/02/18 05:35:40;;;;;;;22.48;11.05;;;;;;;10.76;100.00;101642.97;2604361;36;20394;-56
2023/02/18 05:38:09;;;;;;;18.55;9.43;;;;;;;10.65;100.00;101637.53;2609071;31;20050;-55
2023/02/18 05:40:40;;;;;;;20.35;10.45;;;;;;;10.81;100.00;101635.38;2603573;36;20563;-52
2023/02/18 05:43:08;;;;;;;21.27;11.57;;;;;;;10.78;100.00;101630.25;2607943;36;20163;-55
2023/02/18 05:45:37;;;;;;;23.23;11.67;;;;;;;10.82;100.00;101626.34;2605356;36;20042;-58
2023/02/18 05:48:06;;;;;;;19.70;10.48;;;;;;;10.84;100.00;101624.38;2603749;36;20042;-56
2023/02/18 05:50:35;;;;;;;23.17;11.23;;;;;;;10.76;100.00;101631.31;2606006;36;20045;-56
2023/02/18 05:53:03;;;;;;;20.05;10.25;;;;;;;10.95;100.00;101628.91;2617016;36;20038;-54
2023/02/18 05:55:32;;;;;;;21.13;10.30;;;;;;;10.91;100.00;101629.28;2620327;36;20081;-54
2023/02/18 05:58:02;;;;;;;21.40;10.32;;;;;;;10.92;100.00;101618.38;2619528;31;20069;-54
2023/02/18 06:00:31;;;;;;;20.13;10.30;;;;;;;11.11;100.00;101617.78;2615941;31;20034;-56
2023/02/18 06:03:00;;;;;;;19.65;11.13;;;;;;;11.07;100.00;101629.81;2616342;36;20030;-55
2023/02/18 06:05:28;;;;;;;16.98;10.20;;;;;;;10.96;100.00;101627.09;2616337;31;20038;-55
2023/02/18 06:07:56;;;;;;;21.70;11.18;;;;;;;11.07;100.00;101627.13;2616065;36;20034;-55
2023/02/18 06:10:25;;;;;;;22.30;11.18;;;;;;;11.00;100.00;101623.19;2620708;36;20045;-54
2023/02/18 06:12:53;;;;;;;23.93;12.23;;;;;;;11.07;100.00;101637.03;2616750;36;20563;-55
2023/02/18 06:15:24;;;;;;;24.58;12.13;;;;;;;10.99;100.00;101633.09;2616598;36;20295;-55
2023/02/18 06:17:52;;;;;;;25.50;12.75;;;;;;;10.99;100.00;101643.00;2615386;36;20039;-56
2023/02/18 06:20:21;;;;;;;31.73;13.65;;;;;;;11.15;100.00;101631.91;2616329;36;20034;-53
2023/02/18 06:22:49;;;;;;;31.42;14.98;;;;;;;10.99;100.00;101634.94;2616500;31;20546;-55
2023/02/18 06:25:17;;;;;;;30.83;14.20;;;;;;;10.95;100.00;101637.00;2616331;36;20543;-56
2023/02/18 06:27:46;;;;;;;38.87;15.80;;;;;;;10.91;100.00;101640.03;2616615;36;20038;-53
2023/02/18 06:30:15;;;;;;;28.73;14.73;;;;;;;11.02;100.00;101637.38;2615470;31;20286;-54
2023/02/18 06:32:46;;;;;;;;;;;;;;;10.94;100.00;101640.69;2616791;36;20160;-54
2023/02/18 06:35:14;;;;;;;33.35;16.50;;;;;;;10.97;100.00;101644.97;2616700;31;19957;-54
2023/02/18 06:37:43;;;;;;;35.80;17.58;;;;;;;11.08;100.00;101646.81;2615956;36;20030;-53
2023/02/18 06:40:12;;;;;;;;;;;;;;;11.01;100.00;101641.03;2616304;31;20474;-52
2023/02/18 06:42:40;;;;;;;36.80;17.08;;;;;;;11.07;100.00;101643.28;2616795;36;19945;-54
2023/02/18 06:45:09;;;;;;;34.22;17.55;;;;;;;10.93;100.00;101640.81;2616312;36;20038;-55
2023/02/18 06:47:37;;;;;;;35.83;16.65;;;;;;;10.98;100.00;101641.28;2616310;36;20038;-56
2023/02/18 06:50:09;;;;;;;37.73;15.77;;;;;;;10.98;100.00;101625.13;2615839;31;20030;-56
2023/02/18 06:52:38;;;;;;;32.38;14.98;;;;;;;11.03;100.00;101622.94;2616482;36;20038;-56
2023/02/18 06:55:08;;;;;;;35.08;16.08;;;;;;;11.01;100.00;101619.50;2616561;36;20626;-55
2023/02/18 06:57:36;;;;;;;34.65;15.50;;;;;;;10.91;100.00;101618.50;2616338;36;20041;-54
2023/02/18 07:00:06;;;;;;;28.75;14.63;;;;;;;10.98;100.00;101617.06;2615927;36;20035;-53
2023/02/18 07:02:34;;;;;;;28.38;15.25;;;;;;;11.06;100.00;101628.09;2616099;36;20035;-54
2023/02/18 07:05:03;;;;;;;29.63;14.97;;;;;;;11.03;100.00;101620.25;2616403;36;20042;-56
2023/02/18 07:07:34;;;;;;;30.95;14.32;;;;;;;11.09;100.00;101617.06;2616164;36;20543;-56
2023/02/18 07:10:02;;;;;;;35.97;16.52;;;;;;;10.96;100.00;101609.09;2615981;36;20057;-52
2023/02/18 07:12:30;;;;;;;28.53;14.13;;;;;;;11.00;100.00;101599.78;2615476;36;20069;-55
2023/02/18 07:14:59;;;;;;;22.30;13.02;;;;;;;11.05;100.00;101610.19;2616298;36;20027;-54
2023/02/18 07:17:27;;;;;;;28.27;13.65;;;;;;;11.05;100.00;101605.66;2615616;36;20301;-56
2023/02/18 07:19:56;;;;;;;32.17;13.52;;;;;;;11.19;100.00;101596.50;2615947;36;20034;-55
2023/02/18 07:22:25;;;;;;;27.40;11.95;;;;;;;11.03;100.00;101596.00;2616834;36;20514;-54
2023/02/18 07:24:56;;;;;;;22.33;13.07;;;;;;;11.10;100.00;101591.84;2616439;36;20045;-53
2023/02/18 07:27:24;;;;;;;23.77;12.70;;;;;;;11.11;100.00;101596.25;2616119;36;20042;-54
2023/02/18 07:29:53;;;;;;;24.98;12.77;;;;;;;11.11;100.00;101588.16;2616340;36;20591;-56
2023/02/18 07:32:21;;;;;;;24.13;12.43;;;;;;;11.10;100.00;101596.38;2616103;36;20027;-58
2023/02/18 07:34:50;;;;;;;24.65;11.60;;;;;;;10.98;100.00;101592.81;2616253;36;20038;-52
2023/02/18 07:37:18;;;;;;;28.70;12.57;;;;;;;11.05;100.00;101594.88;2616130;36;20030;-55
2023/02/18 07:39:46;;;;;;;34.73;12.87;;;;;;;11.09;100.00;101606.28;2616499;36;20566;-56
2023/02/18 07:42:17;;;;;;;23.23;12.67;;;;;;;11.07;100.00;101600.19;2615737;31;20539;-56
2023/02/18 07:44:46;;;;;;;21.67;11.80;;;;;;;10.95;100.00;101610.06;2616316;36;21056;-55
2023/02/18 07:47:18;;;;;;;26.57;11.90;;;;;;;11.01;100.00;101608.72;2614893;31;20423;-56
2023/02/18 07:49:46;;;;;;;24.25;10.38;;;;;;;10.99;100.00;101610.69;2602901;36;20491;-56
2023/02/18 07:52:15;;;;;;;22.93;10.30;;;;;;;10.94;100.00;101607.50;2597655;36;20038;-58
2023/02/18 07:54:44;;;;;;;25.63;10.70;;;;;;;11.01;100.00;101619.50;2602369;36;20043;-55
2023/02/18 07:57:21;;;;;;;19.90;10.15;;;;;;;11.00;100.00;101607.03;2600276;36;20051;-56
2023/02/18 07:59:49;;;;;;;27.00;11.15;;;;;;;10.89;100.00;101607.84;2601880;36;20046;-59
2023/02/18 08:02:21;;;;;;;28.73;10.30;;;;;;;10.98;100.00;101608.97;2597931;31;20046;-56
2023/02/18 08:04:50;;;;;;;23.95;11.13;;;;;;;11.00;100.00;101623.19;2602691;36;20037;-56
2023/02/18 08:07:19;;;;;;;19.65;10.10;;;;;;;11.04;100.00;101617.44;2601820;36;20798;-56
2023/02/18 08:09:49;;;;;;;33.28;11.32;;;;;;;10.84;100.00;101618.97;2603303;36;20039;-55
2023/02/18 08:12:21;;;;;;;25.63;10.05;;;;;;;10.87;100.00;101624.13;2595951;36;20066;-57
2023/02/18 08:14:50;;;;;;;30.77;9.32;;;;;;;10.70;100.00;101621.88;2601406;36;20041;-56
2023/02/18 08:17:18;;;;;;;27.45;9.23;;;;;;;10.85;100.00;101626.09;2601932;36;20045;-56
2023/02/18 08:19:50;;;;;;;16.23;8.02;;;;;;;10.89;100.00;101618.63;2600066;36;20548;-57
2023/02/18 08:22:20;;;;;;;26.02;8.10;;;;;;;10.78;100.00;101624.00;2600113;36;20037;-56
2023/02/18 08:24:49;;;;;;;19.48;7.15;;;;;;;10.81;100.00;101618.38;2604045;36;20035;-57
2023/02/18 08:27:20;;;;;;;17.80;7.53;;;;;;;10.78;100.00;101622.16;2602986;36;20050;-55
2023/02/18 08:29:48;;;;;;;16.45;6.95;;;;;;;10.71;100.00;101623.59;2616690;31;20038;-58
2023/02/18 08:32:16;;;;;;;19.42;6.82;;;;;;;10.67;100.00;101631.06;2600094;36;20038;-54
2023/02/18 08:34:45;;;;;;;21.88;6.40;;;;;;;10.79;100.00;101631.97;2601338;31;20042;-54
2023/02/18 08:37:13;;;;;;;19.30;5.03;;;;;;;10.71;100.00;101637.06;2604795;36;20034;-55
2023/02/18 08:39:42;;;;;;;16.08;5.80;;;;;;;10.54;100.00;101640.19;2602490;36;20397;-54
2023/02/18 08:42:10;;;;;;;21.92;8.38;;;;;;;10.50;100.00;101629.66;2606718;36;20038;-56
2023/02/18 08:44:43;;;;;;;12.45;4.35;;;;;;;10.46;100.00;101636.25;2602657;36;20030;-54
2023/02/18 08:47:12;;;;;;;15.25;4.72;;;;;;;10.51;100.00;101631.38;2602569;31;20559;-56
2023/02/18 08:49:40;;;;;;;15.67;3.63;;;;;;;10.55;100.00;101628.47;2601256;36;20559;-56
2023/02/18 08:52:09;;;;;;;24.55;4.30;;;;;;;10.50;100.00;101621.59;2603075;36;20291;-54
2023/02/18 08:54:37;;;;;;;16.07;4.03;;;;;;;10.52;100.00;101616.94;2608552;31;20668;-54
2023/02/18 08:57:06;;;;;;;20.37;4.47;;;;;;;10.63;100.00;101637.66;2607463;31;20034;-56
2023/02/18 08:59:34;;;;;;;12.15;4.20;;;;;;;10.39;100.00;101623.38;2602022;36;20479;-59
2023/02/18 09:02:05;;;;;;;16.57;4.20;;;;;;;10.44;100.00;101632.81;2604215;36;20073;-56
2023/02/18 09:04:34;;;;;;;17.15;3.25;;;;;;;10.32;100.00;101622.94;2602021;36;20485;-57
2023/02/18 09:07:02;;;;;;;19.65;3.90;;;;;;;10.44;100.00;101632.81;2603290;36;20031;-57
2023/02/18 09:09:30;;;;;;;24.50;3.92;;;;;;;10.40;100.00;101631.34;2602895;31;20474;-55
2023/02/18 09:11:59;;;;;;;20.73;4.17;;;;;;;10.46;100.00;101617.41;2606129;36;20026;-57
2023/02/18 09:14:27;;;;;;;20.08;4.45;;;;;;;10.33;100.00;101624.66;2606015;36;20039;-56
2023/02/18 09:16:58;;;;;;;18.13;3.57;;;;;;;10.36;100.00;101635.22;2605766;36;20126;-57
2023/02/18 09:19:29;;;;;;;19.65;3.47;;;;;;;10.41;100.00;101633.06;2604588;36;20026;-55
2023/02/18 09:21:58;;;;;;;14.13;3.22;;;;;;;10.34;100.00;101631.81;2602789;36;20041;-56
2023/02/18 09:24:26;;;;;;;14.88;3.47;;;;;;;10.29;100.00;101644.69;2608159;36;20034;-55
2023/02/18 09:26:55;;;;;;;25.05;3.33;;;;;;;10.27;100.00;101639.44;2605967;31;20038;-55
2023/02/18 09:29:23;;;;;;;17.63;3.63;;;;;;;10.36;100.00;101646.00;2603524;36;20579;-56
2023/02/18 09:31:53;;;;;;;21.38;3.35;;;;;;;10.41;100.00;101648.31;2607249;36;20034;-52
2023/02/18 09:34:23;;;;;;;19.02;2.90;;;;;;;10.42;100.00;101637.44;2605015;31;20616;-56
2023/02/18 09:36:55;;;;;;;18.33;3.88;;;;;;;10.40;100.00;101658.25;2605213;36;20185;-55
2023/02/18 09:39:23;;;;;;;8.68;3.22;;;;;;;10.39;100.00;101643.06;2601756;36;20054;-54
2023/02/18 09:41:54;;;;;;;11.85;2.65;;;;;;;10.52;100.00;101656.47;2604846;36;20042;-52
2023/02/18 09:44:26;;;;;;;14.80;3.33;;;;;;;10.57;100.00;101648.03;2606577;31;20053;-56
2023/02/18 09:46:59;;;;;;;14.98;2.97;;;;;;;10.50;100.00;101651.19;2600150;36;20042;-54
2023/02/18 09:49:32;;;;;;;15.60;2.95;;;;;;;10.55;100.00;101655.38;2604240;36;20054;-58
2023/02/18 09:52:09;;;;;;;18.75;2.97;;;;;;;10.44;100.00;101646.28;2604756;36;20042;-55
2023/02/18 09:54:37;;;;;;;14.65;2.70;;;;;;;10.50;100.00;101644.97;2602643;36;20034;-56
2023/02/18 09:57:08;;;;;;;14.07;2.60;;;;;;;10.64;100.00;101641.22;2600970;31;21260;-58
2023/02/18 09:59:37;;;;;;;13.20;2.88;;;;;;;10.72;100.00;101654.94;2604642;36;20034;-55
2023/02/18 10:02:05;;;;;;;8.70;2.73;;;;;;;10.63;100.00;101648.44;2607502;36;20456;-55
2023/02/18 10:04:43;;;;;;;11.00;2.63;;;;;;;10.79;100.00;101653.50;2603951;36;20043;-58
2023/02/18 10:07:21;;;;;;;11.10;2.88;;;;;;;10.89;100.00;101677.03;2601739;31;20307;-58
2023/02/18 10:09:52;;;;;;;16.98;2.90;;;;;;;10.83;100.00;101665.72;2604000;36;20479;-55
2023/02/18 10:12:23;;;;;;;15.80;2.45;;;;;;;10.77;100.00;101652.75;2604933;36;20038;-56
2023/02/18 10:14:54;;;;;;;13.30;3.35;;;;;;;10.81;100.00;101678.47;2606635;36;20026;-54
2023/02/18 10:17:25;;;;;;;12.30;2.53;;;;;;;10.72;100.00;101663.03;2612162;31;20045;-58
2023/02/18 10:19:55;;;;;;;12.85;2.72;;;;;;;11.15;100.00;101659.69;2601583;36;20045;-55
2023/02/18 10:22:28;;;;;;;11.90;2.92;;;;;;;11.13;100.00;101683.22;2601578;36;20042;-56
2023/02/18 10:25:00;;;;;;;12.73;3.45;;;;;;;11.24;100.00;101689.59;2602782;36;20042;-57
2023/02/18 10:27:32;;;;;;;11.50;2.92;;;;;;;11.15;100.00;101678.56;2605536;36;20037;-55
2023/02/18 10:30:09;;;;;;;14.20;3.40;;;;;;;11.20;100.00;101670.09;2606201;36;20034;-53
2023/02/18 10:32:42;;;;;;;9.25;2.40;;;;;;;11.28;100.00;101691.06;2606961;36;20115;-54
2023/02/18 10:35:21;;;;;;;8.50;2.33;;;;;;;11.58;100.00;101680.53;2602664;31;20038;-54
2023/02/18 10:38:02;;;;;;;8.80;2.67;;;;;;;11.80;100.00;101684.22;2599888;36;20551;-57
2023/02/18 10:40:39;;;;;;;11.73;2.95;;;;;;;11.77;100.00;101689.88;2599779;31;20437;-57
2023/02/18 10:43:19;;;;;;;15.68;2.55;;;;;;;11.78;100.00;101688.88;2601809;36;21220;-57
2023/02/18 10:45:54;;;;;;;13.25;3.20;;;;;;;11.95;100.00;101695.63;2603929;36;20537;-55
2023/02/18 10:48:44;;;;;;;9.48;3.03;;;;;;;11.80;100.00;101699.56;2602995;36;20034;-57
2023/02/18 10:51:18;;;;;;;11.10;2.40;;;;;;;11.75;100.00;101694.53;2604044;36;20038;-54
2023/02/18 10:53:52;;;;;;;13.13;2.65;;;;;;;11.70;100.00;101680.53;2601688;36;20042;-55
2023/02/18 10:56:42;;;;;;;7.90;2.88;;;;;;;11.71;100.00;101679.56;2604431;36;20035;-58
2023/02/18 10:59:20;;;;;;;8.70;2.00;;;;;;;11.87;100.00;101673.81;2600619;36;20758;-56
2023/02/18 11:01:56;;;;;;;12.98;2.42;;;;;;;11.78;100.00;101685.31;2600583;36;20571;-55
2023/02/18 11:04:38;;;;;;;16.55;2.67;;;;;;;11.90;100.00;101687.88;2604193;36;20038;-55
2023/02/18 11:07:09;;;;;;;15.32;2.65;;;;;;;11.98;100.00;101700.78;2600500;36;20065;-54
2023/02/18 11:09:45;;;;;;;15.60;2.58;;;;;;;12.08;100.00;101698.19;2599826;36;20045;-57
2023/02/18 11:12:19;;;;;;;14.85;2.35;;;;;;;12.09;100.00;101694.53;2607253;36;20038;-57
2023/02/18 11:14:51;;;;;;;13.05;3.20;;;;;;;12.24;100.00;101695.94;2597473;36;21113;-53
2023/02/18 11:17:23;;;;;;;12.45;2.97;;;;;;;12.07;100.00;101696.47;2605807;36;20034;-55
2023/02/18 11:20:00;;;;;;;12.02;2.30;;;;;;;12.18;100.00;101687.53;2597017;36;20035;-58
2023/02/18 11:22:32;;;;;;;9.25;2.22;;;;;;;12.23;100.00;101694.25;2606371;36;20901;-56
2023/02/18 11:25:05;;;;;;;15.45;3.17;;;;;;;11.98;100.00;101699.94;2599796;36;20041;-58
2023/02/18 11:27:43;;;;;;;13.88;3.10;;;;;;;12.07;100.00;101696.47;2600158;36;20046;-56
2023/02/18 11:30:21;;;;;;;13.43;2.30;;;;;;;12.12;100.00;101688.00;2603285;31;20439;-57